Terminal Aerodrome Forecast
Issued by NWS Binghamton, NY

Home | Current Version | Previous Version | Text Only | Print | Product List | Glossary On
Versions: 1 2 3 4 5 6 7 8 9 10 11 12 13 14 15 16 17 18 19
000
FTUS41 KBGM 280859 AAA
TAFBGM
TAF AMD
KBGM 280859Z 2809/2906 VRB03KT 2SM BR SCT003
      TEMPO 2809/2812 1/2SM FG VV002
     FM281300 32005KT P6SM SCT040
     FM290000 VRB03KT P6SM SCT250=

USA.gov is the U.S. government's official web portal to all federal, state and local government web resources and services.